Time;durP1;ratioP1;P1;durP2;ratioP2;P2;SDS_P1;SDS_P2;PMS_P1;PMS_P2;Temp;Humidity;BMP_temperature;BMP_pressure;BME280_temperature;BME280_humidity;BME280_pressure;Samples;Min_cycle;Max_cycle;Signal;HPM_P1;HPM_P2
2021/10/07 00:00:46;;;;;;;15.77;9.73;;;;;;;12.01;77.28;99080.09;4948839;29;20548;-79
2021/10/07 00:03:12;;;;;;;16.17;10.65;;;;;;;12.03;77.04;99075.09;4949950;29;20031;-80
2021/10/07 00:05:37;;;;;;;17.35;11.88;;;;;;;12.09;77.25;99084.94;4949785;29;20035;-79
2021/10/07 00:08:03;;;;;;;41.70;34.55;;;;;;;12.12;77.08;99083.56;4949648;29;20380;-79
2021/10/07 00:10:29;;;;;;;19.25;13.40;;;;;;;12.13;76.96;99082.44;4949593;29;20049;-79
2021/10/07 00:12:54;;;;;;;16.73;10.90;;;;;;;12.14;76.62;99084.09;4950778;28;20035;-80
2021/10/07 00:15:20;;;;;;;15.88;9.73;;;;;;;12.08;76.93;99086.06;4952976;29;20027;-80
2021/10/07 00:17:46;;;;;;;18.38;11.52;;;;;;;12.04;77.42;99079.50;4953103;29;20094;-80
2021/10/07 00:20:14;;;;;;;16.45;9.95;;;;;;;12.05;76.90;99081.97;4952406;29;20027;-80
2021/10/07 00:22:40;;;;;;;12.55;8.30;;;;;;;12.06;76.97;99077.28;4952581;29;20027;-80
2021/10/07 00:25:10;;;;;;;13.88;8.02;;;;;;;12.05;77.68;99084.72;4953278;29;20086;-80
2021/10/07 00:27:36;;;;;;;12.48;8.45;;;;;;;12.02;77.19;99082.53;4952107;29;20077;-79
2021/10/07 00:30:12;;;;;;;13.75;8.30;;;;;;;12.02;76.99;99084.50;4953023;29;20428;-78
2021/10/07 00:32:46;;;;;;;14.90;8.70;;;;;;;12.02;76.96;99082.53;4952498;29;20031;-78
2021/10/07 00:40:04;;;;;;;11.27;7.03;;;;;;;11.91;76.87;99087.31;4953074;29;20035;-79
2021/10/07 00:42:29;;;;;;;13.02;7.60;;;;;;;11.91;76.78;99094.72;4952240;29;20026;-77
2021/10/07 00:44:54;;;;;;;12.07;8.40;;;;;;;11.92;76.92;99090.84;4952586;29;20472;-78
2021/10/07 00:47:20;;;;;;;11.27;7.70;;;;;;;11.96;77.24;99088.38;4952435;29;20034;-78
2021/10/07 00:49:45;;;;;;;10.68;7.47;;;;;;;11.97;76.77;99098.25;4952892;29;20028;-78
2021/10/07 00:52:17;;;;;;;9.48;6.70;;;;;;;11.94;76.99;99096.88;4935553;29;20078;-79
2021/10/07 00:54:46;;;;;;;11.57;7.47;;;;;;;11.88;77.04;99087.88;4950505;29;20030;-78
2021/10/07 00:57:17;;;;;;;12.18;7.93;;;;;;;11.82;77.40;99097.28;4952555;29;20106;-79
2021/10/07 00:59:43;;;;;;;12.20;8.25;;;;;;;11.78;76.94;99096.22;4951426;29;20031;-81
2021/10/07 01:02:09;;;;;;;14.93;8.50;;;;;;;11.71;77.07;99102.06;4951621;29;20387;-80
2021/10/07 01:04:35;;;;;;;13.23;8.23;;;;;;;11.72;77.24;99102.84;4934512;29;20039;-80
2021/10/07 01:07:02;;;;;;;13.55;8.35;;;;;;;11.72;77.81;99100.09;4952120;29;20023;-80
2021/10/07 01:09:28;;;;;;;13.02;8.48;;;;;;;11.69;77.24;99095.19;4951353;29;20146;-79
2021/10/07 01:11:55;;;;;;;14.18;8.68;;;;;;;11.63;77.50;99108.16;4951626;29;20033;-79
2021/10/07 01:14:47;;;;;;;14.20;8.75;;;;;;;11.64;77.55;99103.47;4951753;29;20074;-78
2021/10/07 01:17:17;;;;;;;21.30;12.52;;;;;;;11.60;76.91;99106.81;4951539;29;20027;-79
2021/10/07 01:19:45;;;;;;;13.63;8.35;;;;;;;11.57;77.24;99101.06;4951552;29;20031;-80
2021/10/07 01:22:11;;;;;;;11.52;6.85;;;;;;;11.54;78.04;99105.22;4951723;29;20030;-79
2021/10/07 01:24:37;;;;;;;13.70;8.48;;;;;;;11.56;77.37;99108.50;4950720;28;20031;-80
2021/10/07 01:27:03;;;;;;;12.77;8.23;;;;;;;11.60;77.67;99112.31;4951592;29;20023;-80
2021/10/07 01:29:29;;;;;;;16.52;9.57;;;;;;;11.67;78.24;99111.97;4952115;29;20031;-81
2021/10/07 01:31:55;;;;;;;13.38;8.90;;;;;;;11.69;77.71;99117.16;4951180;29;20037;-79
2021/10/07 01:34:25;;;;;;;13.43;8.23;;;;;;;11.75;77.72;99105.88;4952438;29;20035;-78
2021/10/07 01:36:51;;;;;;;14.93;8.88;;;;;;;11.81;78.00;99114.88;4951335;29;20031;-79
2021/10/07 01:39:18;;;;;;;14.85;8.45;;;;;;;11.84;77.68;99110.72;4951719;29;20034;-79
2021/10/07 01:41:43;;;;;;;13.40;7.88;;;;;;;11.89;77.74;99116.16;4952471;29;20026;-79
2021/10/07 01:44:09;;;;;;;15.70;8.98;;;;;;;11.94;78.13;99113.38;4951512;29;20035;-80
2021/10/07 01:46:34;;;;;;;13.45;8.40;;;;;;;11.98;77.27;99111.69;4952257;29;20035;-79
2021/10/07 01:49:00;;;;;;;13.48;7.78;;;;;;;11.99;77.86;99109.78;4952107;29;20023;-80
2021/10/07 01:51:26;;;;;;;15.90;9.00;;;;;;;12.01;77.20;99118.59;4952796;29;20027;-80
2021/10/07 01:53:52;;;;;;;13.60;8.07;;;;;;;12.01;77.21;99107.59;4951969;29;20510;-80
2021/10/07 01:56:17;;;;;;;14.52;7.80;;;;;;;12.00;77.38;99114.19;4952180;29;20043;-80
2021/10/07 01:58:43;;;;;;;11.98;7.65;;;;;;;11.97;77.36;99114.75;4952612;29;20030;-81
2021/10/07 02:01:08;;;;;;;12.90;7.75;;;;;;;11.94;76.92;99118.06;4951217;29;20600;-81
2021/10/07 02:03:34;;;;;;;13.13;7.60;;;;;;;11.90;76.96;99124.16;4949094;29;20460;-81
2021/10/07 02:05:59;;;;;;;13.80;8.00;;;;;;;11.93;77.09;99117.25;4951494;29;20562;-81
2021/10/07 02:08:25;;;;;;;13.23;7.88;;;;;;;11.91;77.18;99120.28;4951987;29;20033;-81
2021/10/07 02:10:50;;;;;;;15.70;7.95;;;;;;;11.91;77.17;99114.78;4952856;29;20015;-81
2021/10/07 02:13:16;;;;;;;13.82;8.05;;;;;;;11.91;77.64;99120.28;4952200;29;20833;-81
2021/10/07 02:15:41;;;;;;;15.05;8.30;;;;;;;11.92;77.68;99121.09;4951588;29;20559;-80
2021/10/07 02:18:07;;;;;;;13.50;8.45;;;;;;;11.90;76.98;99121.41;4952038;29;20419;-81
2021/10/07 02:20:33;;;;;;;12.40;7.85;;;;;;;11.93;77.42;99116.44;4945130;29;20023;-81
2021/10/07 02:22:58;;;;;;;13.95;9.05;;;;;;;11.94;77.46;99126.31;4950557;29;20031;-82
2021/10/07 02:25:24;;;;;;;14.45;9.00;;;;;;;11.95;77.53;99126.00;4950024;29;20086;-82
2021/10/07 02:27:49;;;;;;;14.80;9.65;;;;;;;11.95;77.66;99130.72;4949967;29;20038;-82
2021/10/07 02:30:16;;;;;;;15.63;10.68;;;;;;;11.98;77.36;99136.44;4951838;29;20094;-82
2021/10/07 02:32:44;;;;;;;19.17;11.55;;;;;;;11.97;77.06;99136.75;4951664;29;20114;-82
2021/10/07 02:35:10;;;;;;;28.75;16.80;;;;;;;11.96;77.09;99146.91;4950260;28;20035;-81
2021/10/07 02:37:36;;;;;;;21.02;12.77;;;;;;;11.95;77.41;99142.50;4951747;29;20058;-82
2021/10/07 02:40:03;;;;;;;25.30;14.35;;;;;;;11.98;77.32;99143.88;4951603;29;20027;-82
2021/10/07 02:42:28;;;;;;;20.67;11.52;;;;;;;12.01;77.19;99140.59;4951432;29;20110;-82
2021/10/07 02:44:54;;;;;;;31.85;17.20;;;;;;;12.02;77.40;99134.78;4951127;29;20027;-82
2021/10/07 02:47:19;;;;;;;23.33;13.45;;;;;;;12.01;77.76;99138.63;4951732;29;20062;-81
2021/10/07 02:49:45;;;;;;;16.58;9.57;;;;;;;11.97;77.51;99139.50;4951220;29;20019;-81
2021/10/07 02:52:10;;;;;;;17.15;9.30;;;;;;;11.97;77.95;99143.03;4951463;29;20024;-83
2021/10/07 02:54:36;;;;;;;19.48;10.43;;;;;;;12.00;77.66;99147.19;4951056;29;20416;-80
2021/10/07 02:57:01;;;;;;;14.93;9.95;;;;;;;11.98;77.66;99147.44;4951279;29;20023;-82
2021/10/07 02:59:27;;;;;;;14.70;9.43;;;;;;;11.96;77.96;99140.59;4934220;29;20062;-82
2021/10/07 03:01:52;;;;;;;15.38;9.18;;;;;;;11.99;77.98;99143.59;4951419;29;20451;-83
2021/10/07 03:04:18;;;;;;;12.38;8.13;;;;;;;12.00;77.71;99144.44;4950967;29;20038;-81
2021/10/07 03:06:43;;;;;;;14.15;9.57;;;;;;;11.96;77.96;99154.34;4950847;29;20043;-83
2021/10/07 03:09:08;;;;;;;13.68;8.45;;;;;;;11.93;77.82;99152.16;4951708;29;20523;-80
2021/10/07 03:11:34;;;;;;;13.05;9.02;;;;;;;11.96;77.96;99154.34;4951416;29;20070;-80
2021/10/07 03:14:00;;;;;;;14.40;9.10;;;;;;;11.97;77.41;99151.28;4950924;29;20062;-80
2021/10/07 03:16:25;;;;;;;13.68;9.50;;;;;;;12.04;77.74;99156.47;4950439;29;20051;-81
2021/10/07 03:18:50;;;;;;;13.90;8.88;;;;;;;12.08;77.71;99154.78;4950959;29;20070;-80
2021/10/07 03:21:16;;;;;;;12.95;8.55;;;;;;;12.11;77.60;99156.16;4950447;29;20540;-80
2021/10/07 03:23:41;;;;;;;13.85;8.88;;;;;;;12.14;77.93;99161.88;4950866;29;20082;-79
2021/10/07 03:26:07;;;;;;;14.80;9.95;;;;;;;12.19;77.86;99163.78;4949381;29;20476;-79
2021/10/07 03:28:32;;;;;;;13.25;8.88;;;;;;;12.21;77.39;99161.56;4933612;29;20503;-79
2021/10/07 03:30:58;;;;;;;13.10;8.55;;;;;;;12.25;77.92;99164.53;4950620;29;20090;-79
2021/10/07 03:33:23;;;;;;;14.65;8.15;;;;;;;12.29;77.49;99174.66;4933932;29;20592;-79
2021/10/07 03:35:49;;;;;;;12.68;8.15;;;;;;;12.29;77.32;99171.91;4950533;29;20039;-79
2021/10/07 03:38:14;;;;;;;12.73;7.60;;;;;;;12.26;77.23;99172.50;4950631;29;20123;-81
2021/10/07 03:40:40;;;;;;;11.35;7.93;;;;;;;12.23;77.65;99177.75;4950674;29;20032;-81
2021/10/07 03:43:05;;;;;;;13.23;8.30;;;;;;;12.24;77.73;99171.97;4950305;29;20483;-80
2021/10/07 03:45:31;;;;;;;12.38;7.82;;;;;;;12.27;77.79;99173.34;4950578;28;20081;-79
2021/10/07 03:47:56;;;;;;;12.45;8.10;;;;;;;12.31;77.53;99171.63;4953225;29;20091;-80
2021/10/07 03:50:22;;;;;;;11.70;7.35;;;;;;;12.34;77.39;99171.06;4955299;29;20035;-81
2021/10/07 03:52:47;;;;;;;12.25;7.28;;;;;;;12.29;77.33;99169.16;4955271;29;20093;-80
2021/10/07 03:55:13;;;;;;;13.57;7.72;;;;;;;12.23;77.55;99166.75;4954517;29;20502;-81
2021/10/07 03:57:38;;;;;;;12.13;8.10;;;;;;;12.18;77.64;99171.19;4954512;29;20480;-81
2021/10/07 04:00:06;;;;;;;13.02;8.48;;;;;;;12.11;76.97;99173.47;4954400;29;20429;-81
2021/10/07 04:02:32;;;;;;;11.23;7.40;;;;;;;12.06;77.27;99174.34;4953756;29;20142;-82
2021/10/07 04:04:57;;;;;;;13.70;7.78;;;;;;;12.05;77.14;99169.13;4954305;29;20503;-82
2021/10/07 04:07:23;;;;;;;12.32;7.15;;;;;;;12.06;77.14;99171.59;4936878;29;20697;-80
2021/10/07 04:09:48;;;;;;;11.73;7.32;;;;;;;12.07;77.60;99166.91;4932600;29;20044;-81
2021/10/07 04:12:13;;;;;;;12.88;8.00;;;;;;;12.07;77.32;99177.91;4933415;29;20043;-81
2021/10/07 04:14:39;;;;;;;12.80;7.70;;;;;;;12.06;76.87;99176.25;4934078;29;20027;-81
2021/10/07 04:17:05;;;;;;;12.65;7.65;;;;;;;12.05;77.60;99180.94;4933384;29;20388;-82
2021/10/07 04:19:30;;;;;;;12.50;7.78;;;;;;;12.09;77.26;99178.44;4935144;29;20512;-83
2021/10/07 04:21:56;;;;;;;13.35;7.40;;;;;;;12.16;77.68;99172.63;4934241;29;20027;-82
2021/10/07 04:24:21;;;;;;;11.82;7.15;;;;;;;12.17;77.61;99172.31;4933999;29;20396;-81
2021/10/07 04:26:46;;;;;;;10.93;7.28;;;;;;;12.19;77.73;99172.84;4934359;29;20445;-83
2021/10/07 04:29:12;;;;;;;13.20;7.63;;;;;;;12.21;77.46;99178.06;4934850;29;20023;-83
2021/10/07 04:31:38;;;;;;;13.18;7.85;;;;;;;12.25;77.57;99178.28;4933526;29;20032;-82
2021/10/07 04:34:05;;;;;;;11.90;7.25;;;;;;;12.26;77.67;99185.44;4934927;29;20138;-82
2021/10/07 04:36:31;;;;;;;13.43;8.23;;;;;;;12.30;77.63;99176.31;4935427;29;20039;-81
2021/10/07 04:38:56;;;;;;;14.60;8.40;;;;;;;12.35;77.52;99179.00;4935685;29;20028;-81
2021/10/07 04:41:22;;;;;;;15.00;9.15;;;;;;;12.36;77.20;99175.16;4935017;29;20473;-81
2021/10/07 04:43:47;;;;;;;17.60;8.98;;;;;;;12.38;77.61;99183.13;4934978;29;20040;-81
2021/10/07 04:46:13;;;;;;;14.98;8.63;;;;;;;12.36;77.10;99183.41;4935052;29;20027;-81
2021/10/07 04:48:38;;;;;;;18.40;9.05;;;;;;;12.35;77.12;99183.72;4934955;29;20416;-82
2021/10/07 04:51:03;;;;;;;15.15;8.77;;;;;;;12.37;77.23;99187.00;4931414;29;20032;-82
2021/10/07 04:53:29;;;;;;;13.80;7.93;;;;;;;12.30;77.26;99187.31;4935296;29;20039;-83
2021/10/07 04:55:55;;;;;;;14.57;8.55;;;;;;;12.26;77.32;99196.44;4933761;29;20039;-82
2021/10/07 04:58:22;;;;;;;13.88;8.48;;;;;;;12.24;77.48;99196.72;4934325;29;20477;-82
2021/10/07 05:00:48;;;;;;;15.25;8.55;;;;;;;12.24;77.49;99201.41;4935371;29;20111;-82
2021/10/07 05:03:13;;;;;;;15.63;8.82;;;;;;;12.19;77.13;99203.09;4935569;29;20119;-83
2021/10/07 05:05:39;;;;;;;14.85;8.70;;;;;;;12.18;77.10;99204.19;4934366;29;20043;-81
2021/10/07 05:08:05;;;;;;;15.60;8.68;;;;;;;12.13;77.42;99207.00;4935459;29;20038;-81
2021/10/07 05:10:31;;;;;;;20.40;9.27;;;;;;;12.18;77.62;99203.41;4953580;29;20464;-81
2021/10/07 05:12:57;;;;;;;18.48;9.55;;;;;;;12.17;77.07;99210.81;4954146;29;20041;-81
2021/10/07 05:15:24;;;;;;;16.95;9.90;;;;;;;12.13;77.12;99207.00;4954151;29;20677;-81
2021/10/07 05:17:51;;;;;;;20.25;12.20;;;;;;;12.12;77.47;99204.53;4953734;29;20085;-81
2021/10/07 05:20:16;;;;;;;20.17;11.57;;;;;;;12.14;77.53;99208.63;4954215;29;20547;-81
2021/10/07 05:22:42;;;;;;;17.52;10.57;;;;;;;12.14;77.28;99205.06;4953951;29;20039;-81
2021/10/07 05:25:07;;;;;;;26.67;14.05;;;;;;;12.14;77.30;99208.63;4953163;29;20502;-82
2021/10/07 05:27:33;;;;;;;20.38;11.70;;;;;;;12.14;77.73;99213.31;4953524;29;20031;-82
2021/10/07 05:29:58;;;;;;;19.90;10.13;;;;;;;12.14;77.38;99213.31;4953751;29;20042;-82
2021/10/07 05:32:24;;;;;;;18.95;9.88;;;;;;;12.12;78.00;99210.03;4954334;29;20038;-82
2021/10/07 05:34:49;;;;;;;17.15;9.50;;;;;;;12.14;77.59;99219.63;4953910;29;20035;-83
2021/10/07 05:37:15;;;;;;;15.73;8.48;;;;;;;12.20;78.02;99215.72;4954321;29;20628;-82
2021/10/07 05:39:40;;;;;;;15.90;8.48;;;;;;;12.19;77.51;99214.09;4953472;29;20039;-82
2021/10/07 05:42:06;;;;;;;15.25;8.48;;;;;;;12.20;77.66;99214.94;4953623;29;20038;-82
2021/10/07 05:44:32;;;;;;;14.55;9.23;;;;;;;12.21;77.38;99216.56;4953613;29;20031;-82
2021/10/07 05:46:57;;;;;;;17.27;9.05;;;;;;;12.23;77.37;99225.31;4953944;29;20533;-82
2021/10/07 05:49:23;;;;;;;16.17;9.48;;;;;;;12.22;77.77;99234.72;4953280;29;20063;-81
2021/10/07 05:51:48;;;;;;;17.75;10.23;;;;;;;12.25;77.56;99234.09;4953579;29;20084;-78
2021/10/07 05:54:14;;;;;;;24.63;13.90;;;;;;;12.33;77.84;99232.69;4953015;29;20373;-80
2021/10/07 05:56:39;;;;;;;30.20;15.88;;;;;;;12.38;78.02;99231.81;4952931;29;20023;-85
2021/10/07 05:59:05;;;;;;;16.17;9.90;;;;;;;12.42;77.42;99232.88;4953520;29;20558;-84
2021/10/07 06:01:30;;;;;;;19.38;11.15;;;;;;;12.42;77.32;99230.13;4939789;29;20476;-84
2021/10/07 06:03:55;;;;;;;37.65;15.90;;;;;;;12.46;77.81;99231.19;4949289;29;20471;-84
2021/10/07 06:06:21;;;;;;;35.63;17.85;;;;;;;12.49;77.44;99236.09;4952741;29;20027;-88
2021/10/07 06:08:46;;;;;;;602.92;183.75;;;;;;;12.50;77.95;99241.31;4953173;28;20463;-84
2021/10/07 06:11:12;;;;;;;546.08;149.25;;;;;;;12.49;77.74;99236.91;4953517;29;20074;-84
2021/10/07 06:13:37;;;;;;;116.28;34.53;;;;;;;12.49;77.68;99231.41;4953402;29;20436;-85
2021/10/07 06:16:03;;;;;;;95.47;30.73;;;;;;;12.50;77.30;99241.31;4952950;29;20032;-85
2021/10/07 06:18:28;;;;;;;69.88;25.85;;;;;;;12.53;77.26;99239.94;4951815;29;20399;-85
2021/10/07 06:20:54;;;;;;;26.20;12.88;;;;;;;12.56;77.25;99247.59;4951919;29;20047;-85
2021/10/07 06:23:19;;;;;;;21.25;10.93;;;;;;;12.62;77.49;99253.88;4953287;29;20114;-85
2021/10/07 06:25:45;;;;;;;19.88;11.40;;;;;;;12.64;77.39;99246.94;4948332;29;20038;-86
2021/10/07 06:28:12;;;;;;;20.00;10.35;;;;;;;12.66;77.42;99252.97;4952907;29;20114;-86
2021/10/07 06:30:38;;;;;;;26.95;13.18;;;;;;;12.70;77.54;99261.50;4952899;29;20035;-85
2021/10/07 06:33:03;;;;;;;48.95;22.80;;;;;;;12.70;77.06;99258.75;4952664;29;20042;-85
2021/10/07 06:35:30;;;;;;;26.58;13.88;;;;;;;12.71;77.00;99256.81;4952480;29;20027;-86
2021/10/07 06:37:55;;;;;;;25.40;12.27;;;;;;;12.69;77.57;99257.09;4952967;29;20023;-85
2021/10/07 06:40:22;;;;;;;24.98;12.60;;;;;;;12.64;76.96;99266.22;4953003;29;20137;-85
2021/10/07 06:42:48;;;;;;;26.88;13.38;;;;;;;12.62;77.02;99262.13;4952923;29;20077;-86
2021/10/07 06:45:13;;;;;;;29.05;16.38;;;;;;;12.61;77.07;99271.50;4953084;29;20067;-85
2021/10/07 06:47:40;;;;;;;47.15;25.90;;;;;;;12.61;77.76;99275.06;4953697;29;20052;-86
2021/10/07 06:50:09;;;;;;;53.33;35.05;;;;;;;12.57;77.13;99281.44;4951102;29;20027;-85
2021/10/07 06:52:35;;;;;;;76.97;51.45;;;;;;;12.53;77.46;99272.09;4951814;29;20049;-86
2021/10/07 06:55:01;;;;;;;107.47;78.25;;;;;;;12.58;77.28;99272.06;4951856;29;20110;-86
2021/10/07 06:57:27;;;;;;;70.35;50.78;;;;;;;12.62;77.29;99271.22;4951226;29;20043;-86
2021/10/07 06:59:52;;;;;;;72.50;47.92;;;;;;;12.64;77.35;99270.91;4935166;29;20027;-87
2021/10/07 07:02:17;;;;;;;38.22;24.25;;;;;;;12.70;77.54;99272.50;4950438;29;20030;-83
2021/10/07 07:04:43;;;;;;;36.13;22.95;;;;;;;12.77;77.13;99274.91;4952262;29;20035;-86
2021/10/07 07:07:08;;;;;;;35.53;21.45;;;;;;;12.79;77.28;99273.53;4952169;29;20086;-88
2021/10/07 07:09:34;;;;;;;46.60;22.38;;;;;;;12.76;77.38;99279.59;4950813;29;20141;-84
2021/10/07 07:12:00;;;;;;;38.53;19.77;;;;;;;12.72;77.21;99278.53;4952393;29;20027;-84
2021/10/07 07:14:25;;;;;;;34.55;19.13;;;;;;;12.73;77.46;99284.84;4928253;29;20387;-86
2021/10/07 07:16:50;;;;;;;34.47;18.60;;;;;;;12.76;76.94;99281.53;4950436;29;20398;-82
2021/10/07 07:19:16;;;;;;;28.52;15.38;;;;;;;12.82;77.28;99291.38;4950916;29;20051;-83
2021/10/07 07:21:41;;;;;;;28.15;13.73;;;;;;;12.89;77.33;99288.28;4952747;28;20510;-83
2021/10/07 07:24:07;;;;;;;29.55;14.85;;;;;;;12.95;77.56;99300.88;4954333;29;20042;-86
2021/10/07 07:26:35;;;;;;;25.13;12.75;;;;;;;13.01;77.34;99296.97;4953723;29;20490;-85
2021/10/07 07:29:01;;;;;;;22.45;12.20;;;;;;;13.09;77.28;99289.97;4955345;29;20031;-88
2021/10/07 07:31:27;;;;;;;20.75;11.52;;;;;;;13.19;77.22;99295.38;4953718;29;20061;-86
2021/10/07 07:33:53;;;;;;;19.63;10.18;;;;;;;13.23;77.10;99309.41;4952607;29;20041;-82
2021/10/07 07:36:19;;;;;;;21.42;11.30;;;;;;;13.30;77.23;99298.81;4953958;29;20384;-83
2021/10/07 07:38:45;;;;;;;21.30;12.00;;;;;;;13.40;76.96;99314.44;4955184;29;20038;-84
2021/10/07 07:41:12;;;;;;;21.88;11.23;;;;;;;13.40;76.70;99309.72;4953754;29;20542;-85
2021/10/07 07:43:39;;;;;;;23.88;13.48;;;;;;;13.42;76.96;99305.91;4954327;29;20069;-84
2021/10/07 07:46:04;;;;;;;25.63;13.40;;;;;;;13.46;76.51;99313.28;4954585;29;20063;-83
2021/10/07 07:48:30;;;;;;;39.90;21.55;;;;;;;13.42;76.48;99314.16;4955263;29;20058;-83
2021/10/07 07:50:55;;;;;;;25.35;14.27;;;;;;;13.36;76.45;99322.44;4954613;29;20100;-82
2021/10/07 07:53:21;;;;;;;33.78;17.75;;;;;;;13.34;76.39;99324.69;4954283;29;20027;-83
2021/10/07 07:55:46;;;;;;;44.67;22.65;;;;;;;13.34;76.38;99334.91;4937473;29;20106;-83
2021/10/07 07:58:12;;;;;;;33.80;17.98;;;;;;;13.31;76.61;99324.47;4953703;29;20031;-83
2021/10/07 08:00:39;;;;;;;24.75;14.65;;;;;;;13.29;76.36;99327.50;4949722;29;20648;-82
2021/10/07 08:03:05;;;;;;;59.60;29.77;;;;;;;13.26;76.48;99328.06;4953805;29;20067;-84
2021/10/07 08:05:31;;;;;;;48.67;24.48;;;;;;;13.24;76.28;99335.84;4936739;29;20082;-85
2021/10/07 08:07:56;;;;;;;30.55;17.05;;;;;;;13.27;76.07;99337.19;4954536;29;20114;-84
2021/10/07 08:10:22;;;;;;;27.27;15.77;;;;;;;13.34;76.38;99335.69;4953249;29;20054;-88
2021/10/07 08:12:48;;;;;;;31.55;17.35;;;;;;;13.39;75.88;99337.59;4955212;29;20402;-81
2021/10/07 08:15:14;;;;;;;24.27;15.20;;;;;;;13.44;76.28;99339.50;4954351;29;20031;-82
2021/10/07 08:17:40;;;;;;;24.90;16.13;;;;;;;13.49;76.33;99347.69;4952654;29;20046;-85
2021/10/07 08:20:09;;;;;;;25.60;15.80;;;;;;;13.52;76.04;99338.84;4954053;29;20037;-79
2021/10/07 08:22:34;;;;;;;30.92;19.13;;;;;;;13.55;76.36;99343.78;4953367;29;20023;-81
2021/10/07 08:25:00;;;;;;;30.50;16.98;;;;;;;13.57;76.07;99344.31;4953898;29;20098;-82
2021/10/07 08:27:26;;;;;;;28.17;17.15;;;;;;;13.57;76.23;99346.22;4936161;29;20027;-82
2021/10/07 08:29:53;;;;;;;24.88;15.07;;;;;;;13.57;75.87;99355.31;4954123;29;20506;-86
2021/10/07 08:32:19;;;;;;;31.25;17.58;;;;;;;13.58;76.11;99348.69;4954164;28;20504;-86
2021/10/07 08:34:45;;;;;;;28.52;17.02;;;;;;;13.61;75.71;99350.03;4953900;29;20050;-86
2021/10/07 08:37:10;;;;;;;33.15;18.90;;;;;;;13.58;75.60;99342.34;4953505;29;20027;-80
2021/10/07 08:39:37;;;;;;;31.67;17.83;;;;;;;13.60;75.93;99346.47;4951545;29;20039;-83
2021/10/07 08:42:03;;;;;;;31.35;17.63;;;;;;;13.61;75.70;99337.09;4952758;29;20027;-83
2021/10/07 08:44:29;;;;;;;31.77;19.05;;;;;;;13.65;75.82;99345.56;4951546;29;20049;-84
2021/10/07 08:46:55;;;;;;;31.75;18.15;;;;;;;13.66;75.77;99348.03;4953737;29;20034;-85
2021/10/07 08:49:23;;;;;;;31.45;17.92;;;;;;;13.74;75.83;99341.06;4953166;29;20055;-90
2021/10/07 08:51:49;;;;;;;44.33;25.63;;;;;;;13.94;75.96;99347.41;4953042;29;20031;-82
2021/10/07 08:54:15;;;;;;;34.13;19.92;;;;;;;14.09;75.81;99343.59;4946891;29;20051;-83
2021/10/07 08:56:41;;;;;;;45.42;23.90;;;;;;;14.06;75.52;99335.94;4952796;29;20031;-82
2021/10/07 08:59:07;;;;;;;84.50;43.17;;;;;;;14.01;75.44;99349.81;4952924;29;20089;-86
2021/10/07 09:01:43;;;;;;;72.32;36.97;;;;;;;13.96;75.32;99351.50;4951561;29;20046;-87
2021/10/07 09:04:18;;;;;;;37.55;20.50;;;;;;;13.94;75.50;99344.63;4953126;29;20031;-84
2021/10/07 09:06:49;;;;;;;35.78;20.30;;;;;;;13.90;75.00;99349.09;4953109;29;20523;-85
2021/10/07 09:09:15;;;;;;;69.13;38.22;;;;;;;13.93;75.37;99349.34;4953071;29;20063;-84
2021/10/07 09:11:41;;;;;;;58.90;30.10;;;;;;;14.00;75.46;99354.47;4952892;29;20082;-86
2021/10/07 09:14:09;;;;;;;46.85;25.10;;;;;;;14.08;75.57;99369.53;4950953;29;20095;-84
2021/10/07 09:16:46;;;;;;;50.67;26.08;;;;;;;14.16;75.61;99357.03;4945726;29;20094;-84
2021/10/07 09:19:13;;;;;;;33.97;19.88;;;;;;;14.21;75.39;99359.72;4948878;29;20180;-84
2021/10/07 09:21:38;;;;;;;34.28;18.80;;;;;;;14.25;75.34;99356.06;4951589;29;20113;-85
2021/10/07 09:24:04;;;;;;;45.45;24.58;;;;;;;14.33;75.40;99364.78;4950852;29;20440;-84
2021/10/07 09:26:29;;;;;;;39.78;21.73;;;;;;;14.40;75.34;99356.97;4952459;29;20038;-84
2021/10/07 09:28:56;;;;;;;39.83;21.77;;;;;;;14.43;75.11;99359.13;4953131;29;20019;-83
2021/10/07 09:31:33;;;;;;;31.42;17.80;;;;;;;14.46;75.43;99363.22;4952590;29;20043;-83
2021/10/07 09:34:00;;;;;;;30.98;17.83;;;;;;;14.51;75.46;99372.22;4953171;29;20027;-83
2021/10/07 09:36:26;;;;;;;30.42;18.35;;;;;;;14.53;75.06;99364.47;4953169;29;20031;-84
2021/10/07 09:38:54;;;;;;;32.10;19.08;;;;;;;14.61;75.17;99364.91;4952287;29;20050;-83
2021/10/07 09:41:29;;;;;;;35.55;20.85;;;;;;;14.72;75.19;99347.88;4952005;29;20034;-79
2021/10/07 09:43:56;;;;;;;23.83;15.90;;;;;;;14.89;74.79;99349.28;4951360;28;20046;-76
2021/10/07 09:46:49;;;;;;;22.75;14.98;;;;;;;15.05;74.89;99349.00;4951674;29;20035;-77
2021/10/07 09:49:20;;;;;;;23.50;13.82;;;;;;;15.20;74.35;99361.72;4943854;29;20122;-77
2021/10/07 09:51:54;;;;;;;27.30;17.55;;;;;;;15.23;73.99;99356.38;4951151;29;20050;-78
2021/10/07 09:54:26;;;;;;;21.35;14.93;;;;;;;15.27;73.82;99362.94;4951389;29;20051;-77
2021/10/07 09:56:59;;;;;;;21.88;15.25;;;;;;;15.35;73.88;99361.41;4950138;29;20476;-78
2021/10/07 09:59:27;;;;;;;22.90;15.80;;;;;;;15.51;74.12;99361.94;4952088;29;20066;-75
2021/10/07 10:01:55;;;;;;;27.35;15.82;;;;;;;15.55;73.36;99359.38;4953127;29;20051;-73
2021/10/07 10:04:22;;;;;;;24.75;14.90;;;;;;;15.50;72.94;99359.47;4950634;29;20515;-75
2021/10/07 10:06:48;;;;;;;22.00;14.75;;;;;;;15.37;72.14;99367.44;4951583;29;20027;-74
2021/10/07 10:09:13;;;;;;;33.50;18.23;;;;;;;15.28;72.51;99361.81;4952361;29;20385;-74
2021/10/07 10:11:42;;;;;;;24.67;15.68;;;;;;;15.26;72.97;99366.84;4952884;29;20057;-73
2021/10/07 10:14:08;;;;;;;21.77;14.32;;;;;;;15.12;72.57;99364.06;4952197;29;20034;-74
2021/10/07 10:16:36;;;;;;;23.63;14.32;;;;;;;15.01;72.30;99362.59;4952679;29;20665;-77
2021/10/07 10:19:05;;;;;;;19.70;13.82;;;;;;;14.95;71.95;99366.56;4945596;29;20027;-77
2021/10/07 10:21:37;;;;;;;20.45;13.57;;;;;;;14.84;71.97;99364.00;4949734;29;20423;-74
2021/10/07 10:24:04;;;;;;;21.08;13.95;;;;;;;14.73;72.07;99368.84;4951030;29;20110;-74
2021/10/07 10:26:30;;;;;;;22.30;15.52;;;;;;;14.67;72.38;99370.03;4949759;29;20059;-75
2021/10/07 10:28:56;;;;;;;23.63;15.80;;;;;;;14.65;72.44;99368.69;4950346;29;20077;-74
2021/10/07 10:31:34;;;;;;;25.77;16.98;;;;;;;14.69;72.77;99367.00;4933566;29;20031;-76
2021/10/07 10:34:10;;;;;;;26.63;16.45;;;;;;;14.69;72.60;99365.06;4946632;29;20023;-75
2021/10/07 10:36:49;;;;;;;29.05;18.17;;;;;;;14.84;72.90;99368.69;4949825;29;20059;-74
2021/10/07 10:39:24;;;;;;;21.50;14.73;;;;;;;15.02;73.04;99362.31;4951062;29;20144;-75
2021/10/07 10:41:52;;;;;;;27.65;18.30;;;;;;;15.14;72.79;99367.34;4951225;29;20043;-74
2021/10/07 10:44:26;;;;;;;26.02;16.90;;;;;;;15.33;72.74;99374.72;4951367;29;20036;-74
2021/10/07 10:47:14;;;;;;;23.05;15.38;;;;;;;15.50;72.70;99374.09;4934729;29;20407;-74
2021/10/07 10:49:50;;;;;;;25.67;17.02;;;;;;;15.63;72.25;99380.78;4950619;29;20027;-75
2021/10/07 10:52:22;;;;;;;24.08;15.25;;;;;;;15.67;72.20;99376.28;4944194;29;20399;-75
2021/10/07 10:55:10;;;;;;;73.97;35.50;;;;;;;15.66;71.61;99382.09;4951036;29;20793;-76
2021/10/07 10:57:39;;;;;;;63.57;39.03;;;;;;;15.63;71.19;99381.59;4948102;29;20119;-77
2021/10/07 11:00:10;;;;;;;137.98;72.32;;;;;;;15.69;71.48;99379.53;4949870;29;20098;-75
2021/10/07 11:02:39;;;;;;;166.30;85.50;;;;;;;15.86;71.82;99378.97;4945419;29;20118;-76
2021/10/07 11:05:12;;;;;;;56.72;37.58;;;;;;;16.25;72.06;99385.03;4945002;29;20062;-76
2021/10/07 11:07:39;;;;;;;56.50;39.42;;;;;;;16.71;72.07;99376.78;4947627;29;20034;-76
2021/10/07 11:10:08;;;;;;;36.17;25.30;;;;;;;17.03;71.55;99361.84;4942893;28;20052;-76
2021/10/07 11:12:55;;;;;;;43.00;28.97;;;;;;;17.16;70.96;99365.66;4942808;29;20057;-75
2021/10/07 11:15:23;;;;;;;56.58;37.97;;;;;;;17.22;70.44;99369.13;4950638;29;20472;-77
2021/10/07 11:17:50;;;;;;;58.92;38.08;;;;;;;17.23;69.72;99368.81;4951038;29;20660;-76
2021/10/07 11:20:20;;;;;;;22.67;16.58;;;;;;;17.06;69.45;99364.00;4951290;29;20083;-75
2021/10/07 11:23:07;;;;;;;28.55;20.20;;;;;;;16.98;69.53;99370.31;4949577;29;20051;-76